sensor_id;sensor_type;location;lat;lon;timestamp;pressure;altitude;pressure_sealevel;temperature;humidity
8101;BME280;4093;53.470;9.832;2023-05-12T00:00:31;101616.50;;;15.14;84.02
8101;BME280;4093;53.470;9.832;2023-05-12T00:03:00;101610.38;;;15.15;83.41
8101;BME280;4093;53.470;9.832;2023-05-12T00:05:29;101612.94;;;14.31;86.42
8101;BME280;4093;53.470;9.832;2023-05-12T00:07:57;101630.94;;;14.44;86.23
8101;BME280;4093;53.470;9.832;2023-05-12T00:10:26;101630.72;;;14.57;85.67
8101;BME280;4093;53.470;9.832;2023-05-12T00:12:53;101617.56;;;14.16;86.54
8101;BME280;4093;53.470;9.832;2023-05-12T00:15:22;101632.00;;;14.32;86.78
8101;BME280;4093;53.470;9.832;2023-05-12T00:17:49;101622.78;;;14.16;87.03
8101;BME280;4093;53.470;9.832;2023-05-12T00:20:19;101621.25;;;14.04;86.67
8101;BME280;4093;53.470;9.832;2023-05-12T00:22:47;101629.66;;;14.20;85.99
8101;BME280;4093;53.470;9.832;2023-05-12T00:25:15;101636.78;;;14.58;83.72
8101;BME280;4093;53.470;9.832;2023-05-12T00:27:42;101632.97;;;14.74;82.79
8101;BME280;4093;53.470;9.832;2023-05-12T00:30:11;101635.81;;;14.64;83.55
8101;BME280;4093;53.470;9.832;2023-05-12T00:32:38;101631.34;;;14.69;83.52
8101;BME280;4093;53.470;9.832;2023-05-12T00:35:07;101632.19;;;14.71;83.20
8101;BME280;4093;53.470;9.832;2023-05-12T00:37:36;101632.06;;;14.77;83.93
8101;BME280;4093;53.470;9.832;2023-05-12T00:40:04;101626.31;;;14.60;83.37
8101;BME280;4093;53.470;9.832;2023-05-12T00:42:33;101632.09;;;14.27;85.66
8101;BME280;4093;53.470;9.832;2023-05-12T00:45:01;101641.44;;;14.84;85.33
8101;BME280;4093;53.470;9.832;2023-05-12T00:47:30;101641.31;;;15.31;82.89
8101;BME280;4093;53.470;9.832;2023-05-12T00:49:58;101636.69;;;15.43;82.17
8101;BME280;4093;53.470;9.832;2023-05-12T00:52:26;101635.69;;;15.47;81.92
8101;BME280;4093;53.470;9.832;2023-05-12T00:54:55;101635.56;;;15.54;81.27
8101;BME280;4093;53.470;9.832;2023-05-12T00:57:24;101632.78;;;15.61;82.00
8101;BME280;4093;53.470;9.832;2023-05-12T00:59:53;101639.22;;;15.84;81.75
8101;BME280;4093;53.470;9.832;2023-05-12T01:02:21;101635.56;;;15.54;82.21
8101;BME280;4093;53.470;9.832;2023-05-12T01:04:49;101633.16;;;15.44;84.00
8101;BME280;4093;53.470;9.832;2023-05-12T01:07:20;101645.66;;;15.69;84.45
8101;BME280;4093;53.470;9.832;2023-05-12T01:09:54;101637.84;;;16.05;82.62
8101;BME280;4093;53.470;9.832;2023-05-12T01:12:22;101636.94;;;16.04;82.49
8101;BME280;4093;53.470;9.832;2023-05-12T01:14:51;101640.53;;;16.00;81.14
8101;BME280;4093;53.470;9.832;2023-05-12T01:17:23;101616.59;;;15.47;83.71
8101;BME280;4093;53.470;9.832;2023-05-12T01:19:55;101653.47;;;16.05;83.53
8101;BME280;4093;53.470;9.832;2023-05-12T01:22:25;101647.38;;;16.04;83.40
8101;BME280;4093;53.470;9.832;2023-05-12T01:24:59;101643.03;;;16.05;84.24
8101;BME280;4093;53.470;9.832;2023-05-12T01:27:30;101651.81;;;16.01;83.46
8101;BME280;4093;53.470;9.832;2023-05-12T01:30:00;101649.03;;;15.72;84.09
8101;BME280;4093;53.470;9.832;2023-05-12T01:32:28;101648.19;;;15.72;83.73
8101;BME280;4093;53.470;9.832;2023-05-12T01:34:56;101654.13;;;15.79;84.63
8101;BME280;4093;53.470;9.832;2023-05-12T01:37:23;101653.94;;;15.86;82.82
8101;BME280;4093;53.470;9.832;2023-05-12T01:39:52;101655.63;;;15.89;82.49
8101;BME280;4093;53.470;9.832;2023-05-12T01:42:20;101650.97;;;15.63;84.49
8101;BME280;4093;53.470;9.832;2023-05-12T01:44:49;101660.31;;;16.09;81.87
8101;BME280;4093;53.470;9.832;2023-05-12T01:47:16;101656.34;;;16.28;82.16
8101;BME280;4093;53.470;9.832;2023-05-12T01:49:44;101652.09;;;16.24;81.54
8101;BME280;4093;53.470;9.832;2023-05-12T01:52:12;101654.25;;;16.72;78.91
8101;BME280;4093;53.470;9.832;2023-05-12T01:54:39;101645.50;;;16.11;81.72
8101;BME280;4093;53.470;9.832;2023-05-12T01:57:07;101645.38;;;15.81;82.38
8101;BME280;4093;53.470;9.832;2023-05-12T01:59:34;101650.91;;;15.66;82.89
8101;BME280;4093;53.470;9.832;2023-05-12T02:02:04;101659.31;;;15.80;81.69
8101;BME280;4093;53.470;9.832;2023-05-12T02:04:31;101660.22;;;15.78;81.72
8101;BME280;4093;53.470;9.832;2023-05-12T02:07:00;101657.88;;;16.03;81.01
8101;BME280;4093;53.470;9.832;2023-05-12T02:09:28;101665.16;;;15.88;81.20
8101;BME280;4093;53.470;9.832;2023-05-12T02:11:55;101660.38;;;15.71;82.68
8101;BME280;4093;53.470;9.832;2023-05-12T02:14:23;101663.38;;;15.55;82.81
8101;BME280;4093;53.470;9.832;2023-05-12T02:16:51;101674.44;;;15.63;80.93
8101;BME280;4093;53.470;9.832;2023-05-12T02:19:20;101669.09;;;15.70;80.95
8101;BME280;4093;53.470;9.832;2023-05-12T02:21:47;101673.69;;;15.96;80.01
8101;BME280;4093;53.470;9.832;2023-05-12T02:24:15;101679.91;;;15.91;81.01
8101;BME280;4093;53.470;9.832;2023-05-12T02:26:43;101682.94;;;15.74;80.00
8101;BME280;4093;53.470;9.832;2023-05-12T02:29:10;101676.59;;;15.84;79.58
8101;BME280;4093;53.470;9.832;2023-05-12T02:31:38;101664.03;;;15.63;79.68
8101;BME280;4093;53.470;9.832;2023-05-12T02:34:06;101666.31;;;15.78;79.81
8101;BME280;4093;53.470;9.832;2023-05-12T02:36:35;101675.69;;;15.85;78.27
8101;BME280;4093;53.470;9.832;2023-05-12T02:39:03;101671.34;;;15.86;78.60
8101;BME280;4093;53.470;9.832;2023-05-12T02:41:30;101663.97;;;15.67;80.12
8101;BME280;4093;53.470;9.832;2023-05-12T02:43:58;101671.56;;;15.77;78.89
8101;BME280;4093;53.470;9.832;2023-05-12T02:46:26;101676.66;;;15.81;78.60
8101;BME280;4093;53.470;9.832;2023-05-12T02:48:53;101680.25;;;15.77;78.19
8101;BME280;4093;53.470;9.832;2023-05-12T02:51:21;101673.81;;;15.90;78.34
8101;BME280;4093;53.470;9.832;2023-05-12T02:53:50;101671.78;;;16.03;77.40
8101;BME280;4093;53.470;9.832;2023-05-12T02:56:18;101671.66;;;16.08;77.75
8101;BME280;4093;53.470;9.832;2023-05-12T02:58:46;101675.75;;;16.18;77.18
8101;BME280;4093;53.470;9.832;2023-05-12T03:01:13;101667.72;;;15.91;77.60
8101;BME280;4093;53.470;9.832;2023-05-12T03:03:41;101668.38;;;16.00;77.77
8101;BME280;4093;53.470;9.832;2023-05-12T03:06:09;101616.91;;;15.72;77.43
8101;BME280;4093;53.470;9.832;2023-05-12T03:08:37;101673.06;;;15.85;78.30
8101;BME280;4093;53.470;9.832;2023-05-12T03:11:06;101676.75;;;16.12;77.35
8101;BME280;4093;53.470;9.832;2023-05-12T03:13:34;101673.78;;;16.26;76.52
8101;BME280;4093;53.470;9.832;2023-05-12T03:16:02;101670.47;;;16.19;76.62
8101;BME280;4093;53.470;9.832;2023-05-12T03:18:30;101665.25;;;16.19;76.95
8101;BME280;4093;53.470;9.832;2023-05-12T03:20:57;101671.09;;;16.29;77.21
8101;BME280;4093;53.470;9.832;2023-05-12T03:23:25;101674.34;;;16.05;78.36
8101;BME280;4093;53.470;9.832;2023-05-12T03:25:53;101672.63;;;16.04;77.09
8101;BME280;4093;53.470;9.832;2023-05-12T03:28:22;101669.09;;;16.06;76.10
8101;BME280;4093;53.470;9.832;2023-05-12T03:30:50;101678.47;;;16.13;76.62
8101;BME280;4093;53.470;9.832;2023-05-12T03:33:17;101680.03;;;16.21;76.33
8101;BME280;4093;53.470;9.832;2023-05-12T03:35:45;101657.28;;;15.91;77.12
8101;BME280;4093;53.470;9.832;2023-05-12T03:38:13;101672.81;;;16.30;76.05
8101;BME280;4093;53.470;9.832;2023-05-12T03:40:40;101674.19;;;16.11;76.45
8101;BME280;4093;53.470;9.832;2023-05-12T03:43:08;101675.59;;;15.88;76.06
8101;BME280;4093;53.470;9.832;2023-05-12T03:45:37;101670.00;;;16.04;75.69
8101;BME280;4093;53.470;9.832;2023-05-12T03:48:05;101678.50;;;16.12;75.97
8101;BME280;4093;53.470;9.832;2023-05-12T03:50:32;101669.00;;;16.09;75.88
8101;BME280;4093;53.470;9.832;2023-05-12T03:53:06;101675.16;;;16.07;75.69
8101;BME280;4093;53.470;9.832;2023-05-12T03:55:34;101674.59;;;15.94;76.26
8101;BME280;4093;53.470;9.832;2023-05-12T03:58:02;101678.66;;;16.06;76.05
8101;BME280;4093;53.470;9.832;2023-05-12T04:00:30;101676.81;;;16.11;75.83
8101;BME280;4093;53.470;9.832;2023-05-12T04:02:59;101681.97;;;16.14;75.97
8101;BME280;4093;53.470;9.832;2023-05-12T04:05:27;101679.72;;;15.99;76.02
8101;BME280;4093;53.470;9.832;2023-05-12T04:07:55;101690.16;;;15.99;75.81
8101;BME280;4093;53.470;9.832;2023-05-12T04:10:22;101676.97;;;16.05;75.74
8101;BME280;4093;53.470;9.832;2023-05-12T04:12:51;101685.09;;;15.92;75.75
8101;BME280;4093;53.470;9.832;2023-05-12T04:15:19;101689.94;;;16.08;75.12
8101;BME280;4093;53.470;9.832;2023-05-12T04:17:46;101693.66;;;15.98;75.82
8101;BME280;4093;53.470;9.832;2023-05-12T04:20:16;101698.72;;;16.04;75.67
8101;BME280;4093;53.470;9.832;2023-05-12T04:22:44;101699.97;;;16.23;75.15
8101;BME280;4093;53.470;9.832;2023-05-12T04:25:13;101705.22;;;16.22;75.04
8101;BME280;4093;53.470;9.832;2023-05-12T04:27:40;101706.63;;;16.01;75.74
8101;BME280;4093;53.470;9.832;2023-05-12T04:30:08;101710.31;;;16.26;75.30
8101;BME280;4093;53.470;9.832;2023-05-12T04:32:36;101710.19;;;16.65;73.81
8101;BME280;4093;53.470;9.832;2023-05-12T04:35:04;101703.00;;;16.40;74.68
8101;BME280;4093;53.470;9.832;2023-05-12T04:37:33;101710.09;;;16.35;74.93
8101;BME280;4093;53.470;9.832;2023-05-12T04:40:01;101715.81;;;16.15;75.05
8101;BME280;4093;53.470;9.832;2023-05-12T04:42:29;101717.19;;;16.30;74.63
8101;BME280;4093;53.470;9.832;2023-05-12T04:44:57;101716.03;;;16.73;73.59
8101;BME280;4093;53.470;9.832;2023-05-12T04:47:25;101717.91;;;16.37;73.96
8101;BME280;4093;53.470;9.832;2023-05-12T04:49:52;101724.34;;;16.56;74.49
8101;BME280;4093;53.470;9.832;2023-05-12T04:52:20;101723.50;;;16.54;74.16
8101;BME280;4093;53.470;9.832;2023-05-12T04:54:51;101726.63;;;16.69;73.08
8101;BME280;4093;53.470;9.832;2023-05-12T04:57:19;101724.16;;;16.64;73.14
8101;BME280;4093;53.470;9.832;2023-05-12T04:59:47;101706.91;;;16.57;72.92
8101;BME280;4093;53.470;9.832;2023-05-12T05:02:15;101738.38;;;16.86;73.03
8101;BME280;4093;53.470;9.832;2023-05-12T05:04:43;101725.75;;;16.35;73.74
8101;BME280;4093;53.470;9.832;2023-05-12T05:07:10;101734.53;;;16.65;74.25
8101;BME280;4093;53.470;9.832;2023-05-12T05:09:38;101738.91;;;16.65;74.32
8101;BME280;4093;53.470;9.832;2023-05-12T05:12:07;101746.31;;;16.82;73.43
8101;BME280;4093;53.470;9.832;2023-05-12T05:14:35;101739.72;;;16.67;73.28
8101;BME280;4093;53.470;9.832;2023-05-12T05:17:04;101746.31;;;16.82;73.72
8101;BME280;4093;53.470;9.832;2023-05-12T05:19:33;101743.84;;;16.77;73.32
8101;BME280;4093;53.470;9.832;2023-05-12T05:22:20;101738.75;;;16.71;72.97
8101;BME280;4093;53.470;9.832;2023-05-12T05:24:47;101753.31;;;16.81;72.77
8101;BME280;4093;53.470;9.832;2023-05-12T05:27:17;101754.69;;;16.95;72.60
8101;BME280;4093;53.470;9.832;2023-05-12T05:29:44;101755.63;;;16.92;72.58
8101;BME280;4093;53.470;9.832;2023-05-12T05:32:12;101756.44;;;17.55;71.55
8101;BME280;4093;53.470;9.832;2023-05-12T05:34:40;101765.06;;;17.57;70.96
8101;BME280;4093;53.470;9.832;2023-05-12T05:37:08;101763.84;;;17.39;71.41
8101;BME280;4093;53.470;9.832;2023-05-12T05:39:35;101766.53;;;17.38;70.62
8101;BME280;4093;53.470;9.832;2023-05-12T05:42:03;101765.28;;;17.20;71.70
8101;BME280;4093;53.470;9.832;2023-05-12T05:44:32;101771.44;;;18.06;69.32
8101;BME280;4093;53.470;9.832;2023-05-12T05:47:00;101765.97;;;17.86;69.12
8101;BME280;4093;53.470;9.832;2023-05-12T05:49:29;101777.22;;;17.30;70.49
8101;BME280;4093;53.470;9.832;2023-05-12T05:51:56;101766.22;;;17.78;nan
8101;BME280;4093;53.470;9.832;2023-05-12T05:54:24;101769.81;;;17.74;69.79
8101;BME280;4093;53.470;9.832;2023-05-12T05:56:52;101780.63;;;17.91;68.93
8101;BME280;4093;53.470;9.832;2023-05-12T05:59:20;101780.97;;;17.80;69.75
8101;BME280;4093;53.470;9.832;2023-05-12T06:01:49;101785.53;;;18.29;68.81
8101;BME280;4093;53.470;9.832;2023-05-12T06:04:17;101777.63;;;18.57;67.29
8101;BME280;4093;53.470;9.832;2023-05-12T06:06:44;101780.63;;;18.46;67.72
8101;BME280;4093;53.470;9.832;2023-05-12T06:09:12;101781.09;;;18.57;67.54
8101;BME280;4093;53.470;9.832;2023-05-12T06:11:41;101784.16;;;18.70;67.41
8101;BME280;4093;53.470;9.832;2023-05-12T06:14:08;101787.34;;;18.53;68.33
8101;BME280;4093;53.470;9.832;2023-05-12T06:16:36;101783.47;;;18.38;68.00
8101;BME280;4093;53.470;9.832;2023-05-12T06:19:06;101787.03;;;18.62;68.20
8101;BME280;4093;53.470;9.832;2023-05-12T06:21:34;101791.41;;;18.37;68.50
8101;BME280;4093;53.470;9.832;2023-05-12T06:24:01;101790.56;;;18.61;68.46
8101;BME280;4093;53.470;9.832;2023-05-12T06:26:29;101783.69;;;18.32;67.73
8101;BME280;4093;53.470;9.832;2023-05-12T06:28:57;101800.47;;;19.28;66.00
8101;BME280;4093;53.470;9.832;2023-05-12T06:31:25;101798.44;;;19.58;65.47
8101;BME280;4093;53.470;9.832;2023-05-12T06:33:52;101788.47;;;19.45;65.29
8101;BME280;4093;53.470;9.832;2023-05-12T06:36:22;101793.81;;;19.43;65.73
8101;BME280;4093;53.470;9.832;2023-05-12T06:38:49;101790.25;;;19.90;63.86
8101;BME280;4093;53.470;9.832;2023-05-12T06:41:17;101787.28;;;19.53;63.41
8101;BME280;4093;53.470;9.832;2023-05-12T06:43:45;101800.38;;;19.06;65.47
8101;BME280;4093;53.470;9.832;2023-05-12T06:46:12;101779.91;;;18.41;65.35
8101;BME280;4093;53.470;9.832;2023-05-12T06:48:40;101805.09;;;18.70;66.00
8101;BME280;4093;53.470;9.832;2023-05-12T06:51:08;101805.78;;;18.50;66.47
8101;BME280;4093;53.470;9.832;2023-05-12T06:53:37;101806.31;;;18.86;65.47
8101;BME280;4093;53.470;9.832;2023-05-12T06:56:05;101801.53;;;18.74;64.63
8101;BME280;4093;53.470;9.832;2023-05-12T06:58:33;101813.59;;;19.03;65.12
8101;BME280;4093;53.470;9.832;2023-05-12T07:01:01;101801.66;;;18.94;64.13
8101;BME280;4093;53.470;9.832;2023-05-12T07:03:30;101806.81;;;18.98;64.31
8101;BME280;4093;53.470;9.832;2023-05-12T07:05:58;101801.84;;;18.90;63.73
8101;BME280;4093;53.470;9.832;2023-05-12T07:08:26;101807.59;;;19.25;62.95
8101;BME280;4093;53.470;9.832;2023-05-12T07:10:55;101803.53;;;19.16;63.43
8101;BME280;4093;53.470;9.832;2023-05-12T07:13:23;101812.63;;;19.78;61.59
8101;BME280;4093;53.470;9.832;2023-05-12T07:15:50;101808.03;;;19.12;62.53
8101;BME280;4093;53.470;9.832;2023-05-12T07:18:18;101812.88;;;18.75;62.96
8101;BME280;4093;53.470;9.832;2023-05-12T07:20:46;101816.72;;;19.38;62.22
8101;BME280;4093;53.470;9.832;2023-05-12T07:23:14;101823.75;;;19.84;61.98
8101;BME280;4093;53.470;9.832;2023-05-12T07:25:42;101816.13;;;19.30;62.41
8101;BME280;4093;53.470;9.832;2023-05-12T07:28:11;101823.66;;;19.15;63.47
8101;BME280;4093;53.470;9.832;2023-05-12T07:30:39;101823.69;;;19.62;62.74
8101;BME280;4093;53.470;9.832;2023-05-12T07:33:07;101818.56;;;18.86;62.47
8101;BME280;4093;53.470;9.832;2023-05-12T07:35:34;101826.53;;;19.56;60.99
8101;BME280;4093;53.470;9.832;2023-05-12T07:38:02;101815.50;;;19.23;61.86
8101;BME280;4093;53.470;9.832;2023-05-12T07:40:30;101824.97;;;19.27;61.58
8101;BME280;4093;53.470;9.832;2023-05-12T07:42:57;101824.13;;;19.02;62.28
8101;BME280;4093;53.470;9.832;2023-05-12T07:45:26;101825.31;;;19.18;61.85
8101;BME280;4093;53.470;9.832;2023-05-12T07:47:54;101836.88;;;19.84;61.34
8101;BME280;4093;53.470;9.832;2023-05-12T07:50:22;101828.38;;;19.29;61.61
8101;BME280;4093;53.470;9.832;2023-05-12T07:52:51;101824.13;;;19.97;59.08
8101;BME280;4093;53.470;9.832;2023-05-12T07:55:20;101815.28;;;19.76;59.34
8101;BME280;4093;53.470;9.832;2023-05-12T07:57:48;101826.91;;;19.93;59.46
8101;BME280;4093;53.470;9.832;2023-05-12T08:00:17;101829.03;;;20.91;56.73
8101;BME280;4093;53.470;9.832;2023-05-12T08:02:46;101823.19;;;20.85;57.09
8101;BME280;4093;53.470;9.832;2023-05-12T08:05:14;101824.13;;;21.02;57.04
8101;BME280;4093;53.470;9.832;2023-05-12T08:07:41;101812.84;;;21.00;57.09
8101;BME280;4093;53.470;9.832;2023-05-12T08:10:10;101818.97;;;20.60;57.67
8101;BME280;4093;53.470;9.832;2023-05-12T08:12:38;101821.41;;;21.24;56.71
8101;BME280;4093;53.470;9.832;2023-05-12T08:15:07;101834.03;;;20.33;58.62
8101;BME280;4093;53.470;9.832;2023-05-12T08:17:35;101835.44;;;20.64;58.78
8101;BME280;4093;53.470;9.832;2023-05-12T08:20:05;101830.13;;;21.06;56.10
8101;BME280;4093;53.470;9.832;2023-05-12T08:22:34;101836.47;;;21.41;56.09
8101;BME280;4093;53.470;9.832;2023-05-12T08:25:02;101829.94;;;20.70;57.15
8101;BME280;4093;53.470;9.832;2023-05-12T08:27:30;101836.63;;;20.77;58.40
8101;BME280;4093;53.470;9.832;2023-05-12T08:29:58;101832.97;;;22.70;54.90
8101;BME280;4093;53.470;9.832;2023-05-12T08:32:26;101828.13;;;23.62;51.77
8101;BME280;4093;53.470;9.832;2023-05-12T08:34:54;101823.09;;;21.84;54.15
8101;BME280;4093;53.470;9.832;2023-05-12T08:37:23;101828.84;;;22.47;54.29
8101;BME280;4093;53.470;9.832;2023-05-12T08:39:50;101824.78;;;23.43;52.70
8101;BME280;4093;53.470;9.832;2023-05-12T08:42:29;101825.06;;;24.17;51.37
8101;BME280;4093;53.470;9.832;2023-05-12T08:44:58;101827.03;;;21.94;53.61
8101;BME280;4093;53.470;9.832;2023-05-12T08:47:27;101834.66;;;21.81;54.53
8101;BME280;4093;53.470;9.832;2023-05-12T08:49:58;101826.44;;;22.25;52.95
8101;BME280;4093;53.470;9.832;2023-05-12T08:52:28;101813.41;;;22.39;53.43
8101;BME280;4093;53.470;9.832;2023-05-12T08:54:58;101823.53;;;24.13;51.14
8101;BME280;4093;53.470;9.832;2023-05-12T08:57:27;101827.06;;;23.33;50.95
8101;BME280;4093;53.470;9.832;2023-05-12T08:59:56;101837.94;;;23.27;52.20
8101;BME280;4093;53.470;9.832;2023-05-12T09:02:26;101834.47;;;23.26;51.72
8101;BME280;4093;53.470;9.832;2023-05-12T09:05:10;101834.03;;;24.61;49.18
8101;BME280;4093;53.470;9.832;2023-05-12T09:07:42;101827.88;;;24.60;45.91
8101;BME280;4093;53.470;9.832;2023-05-12T09:10:14;101774.00;;;24.47;45.06
8101;BME280;4093;53.470;9.832;2023-05-12T09:13:02;101822.41;;;25.78;44.69
8101;BME280;4093;53.470;9.832;2023-05-12T09:15:33;101830.19;;;23.57;46.56
8101;BME280;4093;53.470;9.832;2023-05-12T09:18:02;101828.41;;;23.24;47.98
8101;BME280;4093;53.470;9.832;2023-05-12T09:20:30;101834.63;;;24.20;46.70
8101;BME280;4093;53.470;9.832;2023-05-12T09:23:11;101834.88;;;24.61;46.06
8101;BME280;4093;53.470;9.832;2023-05-12T09:25:39;101834.97;;;23.66;47.88
8101;BME280;4093;53.470;9.832;2023-05-12T09:28:07;101828.06;;;23.30;47.11
8101;BME280;4093;53.470;9.832;2023-05-12T09:30:35;101831.06;;;23.73;46.18
8101;BME280;4093;53.470;9.832;2023-05-12T09:33:04;101841.41;;;24.24;45.63
8101;BME280;4093;53.470;9.832;2023-05-12T09:35:37;101828.06;;;23.95;44.65
8101;BME280;4093;53.470;9.832;2023-05-12T09:38:07;101841.91;;;23.51;46.51
8101;BME280;4093;53.470;9.832;2023-05-12T09:40:36;101832.78;;;23.08;47.67
8101;BME280;4093;53.470;9.832;2023-05-12T09:43:05;101840.47;;;22.78;47.49
8101;BME280;4093;53.470;9.832;2023-05-12T09:45:33;101844.28;;;23.07;48.74
8101;BME280;4093;53.470;9.832;2023-05-12T09:48:07;101843.25;;;24.38;46.01
8101;BME280;4093;53.470;9.832;2023-05-12T09:50:44;101826.94;;;24.61;44.97
8101;BME280;4093;53.470;9.832;2023-05-12T09:53:15;101834.94;;;24.90;44.70
8101;BME280;4093;53.470;9.832;2023-05-12T09:55:45;101824.00;;;25.10;42.95
8101;BME280;4093;53.470;9.832;2023-05-12T09:58:14;101827.66;;;24.93;45.37
8101;BME280;4093;53.470;9.832;2023-05-12T10:00:44;101827.75;;;24.48;45.18
8101;BME280;4093;53.470;9.832;2023-05-12T10:03:16;101815.28;;;25.23;43.12
8101;BME280;4093;53.470;9.832;2023-05-12T10:05:48;101821.78;;;24.74;42.59
8101;BME280;4093;53.470;9.832;2023-05-12T10:08:20;101822.41;;;24.17;42.18
8101;BME280;4093;53.470;9.832;2023-05-12T10:10:51;101803.25;;;24.74;41.28
8101;BME280;4093;53.470;9.832;2023-05-12T10:13:20;101818.28;;;24.43;40.43
8101;BME280;4093;53.470;9.832;2023-05-12T10:15:48;101823.97;;;24.06;39.72
8101;BME280;4093;53.470;9.832;2023-05-12T10:18:18;101819.81;;;25.06;39.08
8101;BME280;4093;53.470;9.832;2023-05-12T10:20:47;101812.63;;;25.08;38.88
8101;BME280;4093;53.470;9.832;2023-05-12T10:23:18;101806.13;;;25.28;39.02
8101;BME280;4093;53.470;9.832;2023-05-12T10:25:46;101811.59;;;24.97;39.24
8101;BME280;4093;53.470;9.832;2023-05-12T10:28:14;101810.47;;;24.56;39.69
8101;BME280;4093;53.470;9.832;2023-05-12T10:30:43;101817.03;;;25.24;39.06
8101;BME280;4093;53.470;9.832;2023-05-12T10:33:11;101812.53;;;24.96;38.72
8101;BME280;4093;53.470;9.832;2023-05-12T10:35:42;101806.38;;;24.81;38.05
8101;BME280;4093;53.470;9.832;2023-05-12T10:38:14;101812.28;;;25.99;38.33
8101;BME280;4093;53.470;9.832;2023-05-12T10:40:52;101809.34;;;25.19;38.15
8101;BME280;4093;53.470;9.832;2023-05-12T10:43:21;101805.13;;;24.72;39.14
8101;BME280;4093;53.470;9.832;2023-05-12T10:46:05;101808.69;;;25.30;38.79
8101;BME280;4093;53.470;9.832;2023-05-12T10:48:33;101813.84;;;25.03;40.22
8101;BME280;4093;53.470;9.832;2023-05-12T10:51:08;101817.31;;;24.60;38.68
8101;BME280;4093;53.470;9.832;2023-05-12T10:53:37;101814.97;;;26.12;36.88
8101;BME280;4093;53.470;9.832;2023-05-12T10:56:25;101815.28;;;25.23;37.94
8101;BME280;4093;53.470;9.832;2023-05-12T10:59:07;101814.00;;;25.30;37.62
8101;BME280;4093;53.470;9.832;2023-05-12T11:01:39;101817.81;;;25.10;38.16
8101;BME280;4093;53.470;9.832;2023-05-12T11:04:09;101822.16;;;24.82;38.74
8101;BME280;4093;53.470;9.832;2023-05-12T11:06:38;101829.19;;;25.12;37.44
8101;BME280;4093;53.470;9.832;2023-05-12T11:09:07;101820.31;;;25.13;37.40
8101;BME280;4093;53.470;9.832;2023-05-12T11:11:38;101826.09;;;25.20;37.24
8101;BME280;4093;53.470;9.832;2023-05-12T11:14:07;101821.59;;;24.47;38.15
8101;BME280;4093;53.470;9.832;2023-05-12T11:16:40;101823.91;;;23.91;38.85
8101;BME280;4093;53.470;9.832;2023-05-12T11:19:09;101844.34;;;24.19;37.49
8101;BME280;4093;53.470;9.832;2023-05-12T11:21:37;101829.03;;;25.15;36.94
8101;BME280;4093;53.470;9.832;2023-05-12T11:24:06;101836.56;;;25.64;36.89
8101;BME280;4093;53.470;9.832;2023-05-12T11:26:40;101837.03;;;25.56;36.38
8101;BME280;4093;53.470;9.832;2023-05-12T11:29:07;101835.88;;;25.03;36.44
8101;BME280;4093;53.470;9.832;2023-05-12T11:31:35;101835.84;;;25.33;36.04
8101;BME280;4093;53.470;9.832;2023-05-12T11:34:05;101840.00;;;25.79;36.81
8101;BME280;4093;53.470;9.832;2023-05-12T11:36:39;101825.69;;;25.26;36.33
8101;BME280;4093;53.470;9.832;2023-05-12T11:39:12;101827.28;;;24.85;35.02
8101;BME280;4093;53.470;9.832;2023-05-12T11:41:41;101829.47;;;25.50;35.05
8101;BME280;4093;53.470;9.832;2023-05-12T11:44:13;101829.81;;;24.87;35.51
8101;BME280;4093;53.470;9.832;2023-05-12T11:46:53;101838.19;;;25.24;36.82
8101;BME280;4093;53.470;9.832;2023-05-12T11:49:20;101825.06;;;24.17;36.72
8101;BME280;4093;53.470;9.832;2023-05-12T11:51:50;101850.78;;;24.45;36.69
8101;BME280;4093;53.470;9.832;2023-05-12T11:54:19;101851.69;;;24.60;37.40
8101;BME280;4093;53.470;9.832;2023-05-12T11:56:49;101860.19;;;24.35;37.16
8101;BME280;4093;53.470;9.832;2023-05-12T11:59:28;101864.09;;;24.44;37.26
8101;BME280;4093;53.470;9.832;2023-05-12T12:01:56;101860.59;;;25.47;36.28
8101;BME280;4093;53.470;9.832;2023-05-12T12:04:32;101854.34;;;25.48;36.66
8101;BME280;4093;53.470;9.832;2023-05-12T12:07:01;101850.34;;;25.12;37.51
8101;BME280;4093;53.470;9.832;2023-05-12T12:09:32;101856.56;;;24.52;38.48
8101;BME280;4093;53.470;9.832;2023-05-12T12:12:03;101849.94;;;24.45;38.65
8101;BME280;4093;53.470;9.832;2023-05-12T12:14:32;101859.13;;;24.54;39.63
8101;BME280;4093;53.470;9.832;2023-05-12T12:17:01;101850.56;;;24.64;38.90
8101;BME280;4093;53.470;9.832;2023-05-12T12:19:29;101853.50;;;25.04;38.93
8101;BME280;4093;53.470;9.832;2023-05-12T12:21:57;101865.63;;;26.34;37.72
8101;BME280;4093;53.470;9.832;2023-05-12T12:24:24;101854.25;;;25.64;38.35
8101;BME280;4093;53.470;9.832;2023-05-12T12:26:52;101857.19;;;25.73;37.74
8101;BME280;4093;53.470;9.832;2023-05-12T12:29:21;101861.75;;;24.84;37.63
8101;BME280;4093;53.470;9.832;2023-05-12T12:31:51;101857.06;;;25.03;37.95
8101;BME280;4093;53.470;9.832;2023-05-12T12:34:19;101865.81;;;24.45;38.78
8101;BME280;4093;53.470;9.832;2023-05-12T12:36:46;101862.06;;;24.93;37.68
8101;BME280;4093;53.470;9.832;2023-05-12T12:39:14;101862.88;;;25.53;38.22
8101;BME280;4093;53.470;9.832;2023-05-12T12:41:45;101854.19;;;25.36;37.66
8101;BME280;4093;53.470;9.832;2023-05-12T12:44:13;101865.78;;;25.91;37.42
8101;BME280;4093;53.470;9.832;2023-05-12T12:46:42;101853.84;;;24.98;36.57
8101;BME280;4093;53.470;9.832;2023-05-12T12:49:10;101862.34;;;24.59;36.58
8101;BME280;4093;53.470;9.832;2023-05-12T12:51:37;101857.56;;;25.53;36.80
8101;BME280;4093;53.470;9.832;2023-05-12T12:54:11;101854.16;;;25.51;36.86
8101;BME280;4093;53.470;9.832;2023-05-12T13:00:27;101850.50;;;25.25;38.55
8101;BME280;4093;53.470;9.832;2023-05-12T13:02:56;101852.06;;;25.70;37.81
8101;BME280;4093;53.470;9.832;2023-05-12T13:05:23;101839.44;;;25.18;37.82
8101;BME280;4093;53.470;9.832;2023-05-12T13:07:51;101848.72;;;24.51;39.54
8101;BME280;4093;53.470;9.832;2023-05-12T13:10:19;101865.09;;;24.57;40.59
8101;BME280;4093;53.470;9.832;2023-05-12T13:12:47;101861.56;;;24.87;39.47
8101;BME280;4093;53.470;9.832;2023-05-12T13:15:14;101862.97;;;25.23;38.64
8101;BME280;4093;53.470;9.832;2023-05-12T13:17:44;101869.97;;;25.52;38.28
8101;BME280;4093;53.470;9.832;2023-05-12T13:20:14;101858.88;;;25.74;39.39
8101;BME280;4093;53.470;9.832;2023-05-12T13:22:43;101843.69;;;25.21;38.23